Saint Albert, Canada
Current Conditions -  °F | °C
As of 12:00 PM on Tuesday 21 Oct 2014 (Local Time) from CYXD Reporting Station
Clear Clear  
Wind Chill: 54°   Ceiling: Unl
Heat Index: 54°   Visibility: 9mi
Dew Point: 43°   Wind: 8mph
Humidity: 67%   Direction: 300°WNW
Pressure: 29.65"   Gusts: NA
Location:  53.63°N, 113.63°W
Report Text: CYXD 211800Z AUTO 30007KT 9SM CLR 12/06 A2965 RMK SLP050
Loading
Personal Weather Stations






























Interactive Weather Map
Tropical Storm Tracking
New forecast layout! Learn more

10-Day Weather Forecast

Advertisements
Track Severe Weather on mobile